Pagrindinis puslapis
METAR-TAF:

METAR-TAF

Oro uostai :

Alta, Norvegija

platuma: 69-59N, ilguma: 023-22E, Aukštis: 0 m

Dabartinis oras

Ataskaita buvo paskelbta 40 minutes, ne 18:50 UTC
Vėjas 7 kt iš Pietų
Temperatūra -3°C
Drėgmė 74%
Slėgis 971 hPa
Matomumas 10 km arba daugiau
nėra debesų žemiau 1500 m ir nėra kamuolinių lietaus debesų

METAR: ENAT 051850Z 18007KT CAVOK M03/M07 Q0971 RMK WIND 700FT 18010KT

Laikas: 20:30 (19:30 UTC)

Prognozė

Ataskaita buvo paskelbta 2 valandos ir 30 minutes, ne 17:00 UTC
Prognozė galioja nuo 05 metu 18 UTC su 05 metu 23 UTC
Vėjas 6 kt iš Pietų/Pietryčių
Matomumas 10 km arba daugiau
Mažai debesys ne aukštis 2000 ft
Išsisklaidę debesys ne aukštis 4000 ft

TAF: ENAT 051700Z 0518/0523 16006KT 9999 FEW020 SCT040

Orai ataskaitas ir orų prognozės (METAR, TAF).

turimą stotys yra geltonos ir raudonos taškus žemėlapyje.

Perkelti pele per norėdami pamatyti stoties vardą.

Tada spustelėkite, norėdami matyti oro stebėjimo ir prognozės.

Norėdami pakeisti žemėlapį: spustelėkite ant žalios mygtukų su juodo kryžiaus žemyn,; žalią mygtuką su brūkšneliu, jei norite nutolinti; arba žalių rodyklių gretimoms žemėlapius.


METAR-TAF: